Stillwater Regional Airport Stillwater US
ICAO: KSWO
IATA: SWO
Category: Medium
Scheduled Services: No

Elevation: 1000 ft
TransAlt. 18000 ft.

Airport Communications:
ASOS:135.725
KANSAS CITY CNTR:128.3
GND:121.6
MC ALESTER RDO:122.3
TWR:125.35
CTAF/UNICOM:122.7

KSWO Zoom In..

If you have problems with the map follow the link
https://www.worldairports.se/pages/airport.php?
ICAO=KSWO

Runways:

(A) RW 04 length 5004 ft width 75 ft
---- / hdg 40

(B) RW 17 length 7401 ft width 100 ft
ILS 109.15 / hdg 174

(C) RW 22 length 5004 ft width 75 ft
---- / hdg 220

(D) RW 35 length 7401 ft width 100 ft
---- / hdg 354

Location; KSWO
Day. 22 / Time. 13.53 Zulu
* Altimeter: 29.99
* Temperature: 02° c. 35.6°f.
* Wind from: 160° Speed 18 kn with Gusts up to 25 kn.
Dewpoint: 01° c.
Visibility: 7 Statute Miles.
Clouds: Overcast 600 ft.

KSWO 221353Z 16018G25KT 7SM OVC006 02/01 A2999 RMK AO2 RAE29 SLP157 P0000 T00220006


Wind From 160°
Speed 18 kn.

 
 
jpsmedia worldairports.se 2020   terms of use